Time;durP1;ratioP1;P1;durP2;ratioP2;P2;SDS_P1;SDS_P2;PMS_P1;PMS_P2;Temp;Humidity;BMP_temperature;BMP_pressure;BME280_temperature;BME280_humidity;BME280_pressure;Samples;Min_cycle;Max_cycle;Signal;HPM_P1;HPM_P2
2024/02/29 00:01:45;;;;;;;122.72;41.88;;;5.10;99.90;;;;;;5065672;28;20033;-71
2024/02/29 00:04:11;;;;;;;122.97;42.50;;;5.10;99.90;;;;;;5065587;28;20009;-72
2024/02/29 00:06:36;;;;;;;117.13;43.55;;;5.10;99.90;;;;;;5065202;28;20032;-71
2024/02/29 00:09:02;;;;;;;121.22;43.22;;;5.10;99.90;;;;;;5064427;28;20086;-70
2024/02/29 00:11:28;;;;;;;120.65;42.58;;;5.10;99.90;;;;;;5064913;28;20064;-71
2024/02/29 00:13:53;;;;;;;121.72;42.17;;;5.10;99.90;;;;;;5064532;28;20037;-70
2024/02/29 00:16:20;;;;;;;112.22;40.22;;;5.10;99.90;;;;;;5065436;28;20029;-72
2024/02/29 00:18:46;;;;;;;118.88;41.70;;;5.10;99.90;;;;;;5065335;28;20013;-71
2024/02/29 00:21:12;;;;;;;122.13;44.15;;;5.10;99.90;;;;;;5061824;28;20457;-71
2024/02/29 00:23:38;;;;;;;120.72;43.47;;;5.10;99.90;;;;;;5065395;28;20025;-72
2024/02/29 00:26:05;;;;;;;121.47;42.17;;;5.10;99.90;;;;;;5065236;28;20147;-71
2024/02/29 00:28:31;;;;;;;123.57;41.05;;;5.10;99.90;;;;;;5064902;28;20021;-71
2024/02/29 00:30:56;;;;;;;120.70;41.90;;;5.20;99.90;;;;;;5062301;28;20031;-71
2024/02/29 00:33:22;;;;;;;117.22;41.88;;;5.10;99.90;;;;;;5063954;28;20029;-71
2024/02/29 00:35:48;;;;;;;120.30;40.88;;;5.10;99.90;;;;;;5064874;28;20029;-71
2024/02/29 00:38:13;;;;;;;110.15;39.33;;;5.20;99.90;;;;;;5064859;28;20112;-71
2024/02/29 00:40:39;;;;;;;113.25;40.50;;;5.10;99.90;;;;;;5064557;28;20040;-73
2024/02/29 00:43:05;;;;;;;122.18;41.58;;;5.10;99.90;;;;;;5065084;28;20044;-70
2024/02/29 00:45:30;;;;;;;115.38;41.50;;;5.00;99.90;;;;;;5064574;28;20021;-70
2024/02/29 00:47:56;;;;;;;126.32;41.20;;;5.10;99.90;;;;;;5064328;28;20092;-70
2024/02/29 00:50:22;;;;;;;120.93;41.65;;;5.00;99.90;;;;;;5064752;28;20036;-70
2024/02/29 00:52:47;;;;;;;109.95;39.70;;;5.00;99.90;;;;;;5063182;28;20025;-71
2024/02/29 00:55:14;;;;;;;114.43;39.38;;;5.00;99.90;;;;;;5064302;28;20017;-71
2024/02/29 00:57:40;;;;;;;117.25;39.35;;;4.90;99.90;;;;;;5064677;28;20090;-71
2024/02/29 01:00:08;;;;;;;114.35;40.65;;;4.90;99.90;;;;;;5064128;28;20033;-72
2024/02/29 01:02:33;;;;;;;110.75;39.88;;;4.90;99.90;;;;;;5064252;28;20017;-71
2024/02/29 01:04:59;;;;;;;110.32;39.72;;;4.90;99.90;;;;;;5064035;28;20029;-70
2024/02/29 01:07:26;;;;;;;116.93;39.38;;;5.00;99.90;;;;;;5064411;28;20013;-70
2024/02/29 01:09:51;;;;;;;111.50;39.33;;;4.80;99.90;;;;;;5063801;28;20071;-71
2024/02/29 01:12:17;;;;;;;115.95;41.28;;;4.80;99.90;;;;;;5063997;28;20021;-71
2024/02/29 01:14:43;;;;;;;108.50;37.80;;;4.80;99.90;;;;;;5064368;28;20052;-71
2024/02/29 01:17:08;;;;;;;108.63;38.55;;;4.80;99.90;;;;;;5063944;28;20021;-72
2024/02/29 01:19:34;;;;;;;107.53;38.30;;;4.80;99.90;;;;;;5063128;28;20075;-72
2024/02/29 01:22:02;;;;;;;112.65;38.50;;;4.80;99.90;;;;;;5063852;28;20041;-70
2024/02/29 01:24:27;;;;;;;112.28;36.97;;;4.90;99.90;;;;;;5063678;28;20424;-71
2024/02/29 01:26:53;;;;;;;109.25;38.65;;;4.80;99.90;;;;;;5062534;28;20025;-72
2024/02/29 01:29:19;;;;;;;104.35;36.53;;;4.80;99.90;;;;;;5063530;28;20032;-71
2024/02/29 01:31:44;;;;;;;103.97;36.75;;;4.80;99.90;;;;;;5063867;28;20055;-72
2024/02/29 01:34:10;;;;;;;100.18;37.20;;;4.80;99.90;;;;;;5061932;28;20021;-72
2024/02/29 01:36:35;;;;;;;101.30;37.80;;;4.80;99.90;;;;;;5062422;28;20021;-71
2024/02/29 01:39:01;;;;;;;100.43;34.38;;;4.80;99.90;;;;;;5063998;28;20039;-70
2024/02/29 01:41:26;;;;;;;100.28;37.85;;;4.80;99.90;;;;;;5063537;28;20029;-72
2024/02/29 01:43:53;;;;;;;100.65;36.47;;;4.70;99.90;;;;;;5061759;28;20028;-71
2024/02/29 01:46:20;;;;;;;104.38;36.85;;;4.70;99.90;;;;;;5061466;28;20031;-71
2024/02/29 01:48:48;;;;;;;99.30;33.53;;;4.70;99.90;;;;;;5062937;28;20029;-72
2024/02/29 01:51:16;;;;;;;101.68;35.00;;;4.70;99.90;;;;;;5063012;28;20033;-71
2024/02/29 01:53:42;;;;;;;95.47;34.03;;;4.60;99.90;;;;;;5063049;28;20025;-71
2024/02/29 01:56:10;;;;;;;107.32;36.67;;;4.60;99.90;;;;;;5063382;28;20063;-71
2024/02/29 01:58:36;;;;;;;93.90;33.90;;;4.60;99.90;;;;;;5063266;28;20025;-72
2024/02/29 02:01:02;;;;;;;94.40;34.38;;;4.60;99.90;;;;;;5063460;28;20044;-71
2024/02/29 02:03:28;;;;;;;101.07;34.90;;;4.50;99.90;;;;;;5062848;28;21646;-71
2024/02/29 02:05:54;;;;;;;100.20;37.60;;;4.50;99.90;;;;;;5062780;28;20029;-72
2024/02/29 02:08:20;;;;;;;100.90;35.00;;;4.50;99.90;;;;;;5061244;28;20028;-71
2024/02/29 02:10:45;;;;;;;95.57;34.13;;;4.50;99.90;;;;;;5061306;28;20032;-71
2024/02/29 02:13:11;;;;;;;95.20;32.97;;;4.50;99.90;;;;;;5063093;28;20017;-72
2024/02/29 02:15:36;;;;;;;92.38;34.33;;;4.40;99.90;;;;;;5062974;28;20021;-73
2024/02/29 02:18:02;;;;;;;90.75;32.53;;;4.40;99.90;;;;;;5063132;28;20017;-71
2024/02/29 02:20:28;;;;;;;101.90;35.63;;;4.40;99.90;;;;;;5062855;28;20036;-71
2024/02/29 02:22:54;;;;;;;99.78;33.95;;;4.40;99.90;;;;;;5062929;28;20028;-72
2024/02/29 02:25:20;;;;;;;87.57;32.90;;;4.30;99.90;;;;;;5062508;28;20056;-71
2024/02/29 02:27:45;;;;;;;97.70;34.72;;;4.30;99.90;;;;;;5061492;28;20056;-71
2024/02/29 02:30:11;;;;;;;92.13;34.65;;;4.30;99.90;;;;;;5060643;28;20070;-73
2024/02/29 02:32:37;;;;;;;88.60;32.53;;;4.30;99.90;;;;;;5060998;28;20024;-72
2024/02/29 02:35:06;;;;;;;89.65;32.17;;;4.30;99.90;;;;;;5062951;28;20029;-73
2024/02/29 02:37:33;;;;;;;90.43;31.75;;;4.20;99.90;;;;;;5062439;28;20060;-72
2024/02/29 02:39:58;;;;;;;98.15;34.25;;;4.30;99.90;;;;;;5062540;28;20029;-72
2024/02/29 02:42:24;;;;;;;99.40;32.45;;;4.20;99.90;;;;;;5062708;28;20059;-71
2024/02/29 02:44:50;;;;;;;87.55;32.00;;;4.20;99.90;;;;;;5060585;28;20052;-72
2024/02/29 02:47:16;;;;;;;85.10;31.63;;;4.20;99.90;;;;;;5060271;28;20033;-74
2024/02/29 02:49:41;;;;;;;83.43;31.27;;;4.20;99.90;;;;;;5062591;28;20040;-72
2024/02/29 02:52:07;;;;;;;86.25;32.65;;;4.10;99.90;;;;;;5060887;28;20021;-72
2024/02/29 02:54:33;;;;;;;90.03;33.03;;;4.10;99.90;;;;;;5062545;28;20020;-72
2024/02/29 02:56:59;;;;;;;80.68;30.05;;;4.10;99.90;;;;;;5060981;28;20028;-72
2024/02/29 02:59:26;;;;;;;76.63;27.58;;;4.10;99.90;;;;;;5062015;28;20143;-72
2024/02/29 03:01:51;;;;;;;83.63;30.20;;;4.00;99.90;;;;;;5062052;28;20124;-71
2024/02/29 03:04:17;;;;;;;81.22;29.92;;;4.00;99.90;;;;;;5062420;28;20013;-71
2024/02/29 03:06:43;;;;;;;82.45;30.67;;;4.00;99.90;;;;;;5060718;28;20021;-72
2024/02/29 03:09:08;;;;;;;79.95;30.27;;;4.00;99.90;;;;;;5062129;28;20126;-74
2024/02/29 03:11:34;;;;;;;86.25;29.50;;;3.90;99.90;;;;;;5062392;28;20021;-72
2024/02/29 03:14:00;;;;;;;81.38;30.02;;;3.90;99.90;;;;;;5061996;28;20074;-72
2024/02/29 03:16:27;;;;;;;76.30;29.75;;;3.90;99.90;;;;;;5062360;28;20024;-74
2024/02/29 03:18:52;;;;;;;77.57;28.20;;;3.90;99.90;;;;;;5062253;28;20088;-72
2024/02/29 03:21:18;;;;;;;81.85;27.60;;;3.90;99.90;;;;;;5061790;28;20075;-72
2024/02/29 03:23:44;;;;;;;70.47;26.27;;;3.90;99.90;;;;;;5062312;28;20108;-73
2024/02/29 03:26:10;;;;;;;70.90;26.73;;;3.90;99.90;;;;;;5062021;28;20037;-73
2024/02/29 03:28:35;;;;;;;70.63;25.58;;;3.90;99.90;;;;;;5061817;28;20025;-72
2024/02/29 03:31:01;;;;;;;66.50;24.23;;;3.90;99.90;;;;;;5062209;28;20036;-72
2024/02/29 03:33:26;;;;;;;65.25;23.83;;;3.90;99.90;;;;;;5061705;28;20116;-72
2024/02/29 03:35:52;;;;;;;68.45;23.95;;;3.90;99.90;;;;;;5061959;28;20036;-72
2024/02/29 03:38:18;;;;;;;67.63;24.73;;;3.90;99.90;;;;;;5062080;28;20031;-73
2024/02/29 03:40:44;;;;;;;67.40;24.27;;;3.90;99.90;;;;;;5061516;28;20040;-72
2024/02/29 03:43:10;;;;;;;66.43;22.55;;;3.90;99.90;;;;;;5062003;28;20107;-74
2024/02/29 03:45:35;;;;;;;62.88;23.10;;;3.90;99.90;;;;;;5060980;28;20551;-73
2024/02/29 03:48:01;;;;;;;60.22;23.67;;;3.90;99.90;;;;;;5060403;28;20812;-71
2024/02/29 03:50:27;;;;;;;64.07;24.02;;;3.90;99.90;;;;;;5061431;28;20035;-71
2024/02/29 03:52:53;;;;;;;57.42;22.65;;;3.90;99.90;;;;;;5061878;28;20021;-72
2024/02/29 03:55:18;;;;;;;58.58;21.95;;;3.90;99.90;;;;;;5061522;28;20021;-72
2024/02/29 03:57:44;;;;;;;63.70;24.23;;;3.90;99.90;;;;;;5059776;28;20044;-72
2024/02/29 04:00:11;;;;;;;60.08;21.40;;;3.90;99.90;;;;;;5059219;28;20037;-73
2024/02/29 04:02:38;;;;;;;56.70;22.48;;;3.90;99.90;;;;;;5059611;28;20071;-71
2024/02/29 04:05:08;;;;;;;61.03;23.17;;;3.80;99.90;;;;;;5060631;28;20029;-72
2024/02/29 04:07:37;;;;;;;55.17;21.63;;;3.90;99.90;;;;;;5060681;28;20025;-72
2024/02/29 04:10:04;;;;;;;48.90;19.60;;;3.80;99.90;;;;;;5063961;28;20052;-71
2024/02/29 04:12:30;;;;;;;63.13;23.10;;;3.90;99.90;;;;;;5065263;28;20038;-72
2024/02/29 04:14:55;;;;;;;51.92;20.60;;;3.90;99.90;;;;;;5063951;28;20032;-71
2024/02/29 04:17:21;;;;;;;53.88;21.15;;;3.90;99.90;;;;;;5065086;28;20086;-72
2024/02/29 04:19:46;;;;;;;62.10;22.73;;;3.80;99.90;;;;;;5065326;28;20035;-72
2024/02/29 04:22:15;;;;;;;53.05;19.80;;;3.80;99.90;;;;;;5064989;28;20033;-73
2024/02/29 04:24:41;;;;;;;48.55;20.00;;;3.80;99.90;;;;;;5064871;28;20428;-71
2024/02/29 04:27:06;;;;;;;48.25;19.70;;;3.80;99.90;;;;;;5065403;28;20025;-74
2024/02/29 04:29:32;;;;;;;49.85;19.65;;;3.80;99.90;;;;;;5063454;28;20075;-72
2024/02/29 04:31:58;;;;;;;47.42;19.00;;;3.80;99.90;;;;;;5064604;28;20115;-73
2024/02/29 04:34:24;;;;;;;51.85;19.77;;;3.80;99.90;;;;;;5064419;28;20043;-73
2024/02/29 04:36:49;;;;;;;48.67;17.77;;;3.80;99.90;;;;;;5063086;28;20093;-71
2024/02/29 04:39:15;;;;;;;53.33;20.95;;;3.80;99.90;;;;;;5064781;28;20048;-73
2024/02/29 04:41:41;;;;;;;48.30;20.38;;;3.80;99.90;;;;;;5064865;28;20097;-73
2024/02/29 04:44:06;;;;;;;49.88;19.20;;;3.80;99.90;;;;;;5064524;28;20024;-72
2024/02/29 04:46:32;;;;;;;50.90;20.13;;;3.80;99.90;;;;;;5064966;28;20502;-73
2024/02/29 04:48:57;;;;;;;45.38;18.17;;;3.80;99.90;;;;;;5064773;28;20021;-73
2024/02/29 04:51:23;;;;;;;47.15;19.20;;;3.80;99.90;;;;;;5062913;28;20027;-72
2024/02/29 04:53:48;;;;;;;46.83;18.77;;;3.90;99.90;;;;;;5064722;28;20029;-72
2024/02/29 04:56:14;;;;;;;44.53;17.73;;;3.80;99.90;;;;;;5063109;28;20041;-72
2024/02/29 04:58:39;;;;;;;47.35;18.70;;;3.90;99.90;;;;;;5062654;28;20041;-72
2024/02/29 05:01:05;;;;;;;44.58;18.33;;;3.80;99.90;;;;;;5063577;28;20040;-73
2024/02/29 05:03:31;;;;;;;43.30;16.75;;;3.90;99.90;;;;;;5061365;28;20033;-72
2024/02/29 05:05:57;;;;;;;44.40;17.33;;;3.90;99.90;;;;;;5061252;28;20088;-73
2024/02/29 05:08:23;;;;;;;42.17;17.77;;;3.90;99.90;;;;;;5061867;28;20033;-73
2024/02/29 05:10:48;;;;;;;44.13;17.75;;;3.80;99.90;;;;;;5060672;28;20028;-72
2024/02/29 05:13:14;;;;;;;43.53;16.63;;;3.80;99.90;;;;;;5061888;28;20021;-74
2024/02/29 05:15:39;;;;;;;41.67;15.70;;;3.80;99.90;;;;;;5063312;28;20031;-74
2024/02/29 05:18:08;;;;;;;44.30;17.63;;;3.90;99.90;;;;;;5061683;28;21533;-74
2024/02/29 05:20:34;;;;;;;41.90;16.30;;;3.80;99.90;;;;;;5062152;28;20096;-74
2024/02/29 05:23:00;;;;;;;50.25;17.58;;;3.80;99.90;;;;;;5064194;28;20017;-74
2024/02/29 05:25:26;;;;;;;39.80;17.02;;;3.90;99.90;;;;;;5062487;28;20051;-72
2024/02/29 05:27:52;;;;;;;45.50;18.23;;;3.90;99.90;;;;;;5063479;28;20013;-73
2024/02/29 05:30:17;;;;;;;44.50;18.58;;;3.80;99.90;;;;;;5063963;28;20017;-72
2024/02/29 05:32:43;;;;;;;46.03;17.80;;;3.80;99.90;;;;;;5063503;28;20056;-73
2024/02/29 05:35:10;;;;;;;43.58;16.92;;;3.80;99.90;;;;;;5063938;28;20056;-75
2024/02/29 05:37:36;;;;;;;43.50;16.52;;;3.80;99.90;;;;;;5063613;28;20017;-74
2024/02/29 05:40:04;;;;;;;41.85;17.42;;;3.80;99.90;;;;;;5061396;28;20092;-73
2024/02/29 05:42:30;;;;;;;43.25;18.20;;;3.90;99.90;;;;;;5063047;28;20024;-74
2024/02/29 05:44:56;;;;;;;44.85;17.05;;;3.80;99.90;;;;;;5063892;28;20108;-73
2024/02/29 05:47:21;;;;;;;47.08;17.10;;;3.80;99.90;;;;;;5061833;28;20041;-74
2024/02/29 05:49:47;;;;;;;42.22;15.93;;;3.80;99.90;;;;;;5063532;28;20017;-72
2024/02/29 05:52:12;;;;;;;43.63;17.08;;;3.90;99.90;;;;;;5063663;28;20355;-73
2024/02/29 05:54:38;;;;;;;43.35;17.23;;;3.80;99.90;;;;;;5061917;28;20028;-74
2024/02/29 05:57:04;;;;;;;39.38;16.35;;;3.80;99.90;;;;;;5056793;28;20442;-73
2024/02/29 05:59:31;;;;;;;44.65;17.30;;;3.80;99.90;;;;;;5058530;28;20032;-75
2024/02/29 06:01:56;;;;;;;43.30;17.05;;;3.90;99.90;;;;;;5060684;28;20041;-73
2024/02/29 06:04:22;;;;;;;42.72;17.50;;;3.80;99.90;;;;;;5058719;28;20390;-72
2024/02/29 06:06:47;;;;;;;43.70;17.52;;;3.80;99.90;;;;;;5055714;28;20084;-72
2024/02/29 06:09:14;;;;;;;41.70;16.48;;;3.90;99.90;;;;;;5060041;28;20107;-73
2024/02/29 06:11:41;;;;;;;39.63;16.05;;;4.00;99.90;;;;;;5061026;28;20052;-73
2024/02/29 06:14:06;;;;;;;39.13;15.95;;;3.80;99.90;;;;;;5060948;28;20166;-73
2024/02/29 06:16:32;;;;;;;41.20;17.50;;;3.80;99.90;;;;;;5059318;28;20074;-73
2024/02/29 06:18:58;;;;;;;40.08;16.45;;;3.90;99.90;;;;;;5061003;28;20075;-72
2024/02/29 06:21:24;;;;;;;42.03;16.67;;;3.90;99.90;;;;;;5061560;28;20079;-70
2024/02/29 06:23:50;;;;;;;38.58;15.63;;;3.90;99.90;;;;;;5062219;28;20103;-74
2024/02/29 06:26:15;;;;;;;41.95;17.10;;;3.90;99.90;;;;;;5062799;28;20040;-73
2024/02/29 06:28:41;;;;;;;40.08;17.73;;;3.90;99.90;;;;;;5061386;28;20021;-74
2024/02/29 06:31:08;;;;;;;39.65;15.95;;;4.00;99.90;;;;;;5058387;28;20047;-73
2024/02/29 06:33:34;;;;;;;47.58;16.83;;;4.00;99.90;;;;;;5062477;28;20024;-73
2024/02/29 06:36:05;;;;;;;39.40;17.50;;;4.00;99.90;;;;;;5059613;28;20037;-73
2024/02/29 06:38:31;;;;;;;43.47;16.35;;;4.00;99.90;;;;;;5061776;28;20085;-73
2024/02/29 06:40:57;;;;;;;37.58;15.80;;;4.10;99.90;;;;;;5061387;28;20056;-73
2024/02/29 06:43:22;;;;;;;42.25;17.80;;;4.10;99.90;;;;;;5059844;28;20044;-75
2024/02/29 06:45:49;;;;;;;42.22;17.98;;;4.10;99.90;;;;;;5060489;28;20032;-72
2024/02/29 06:48:17;;;;;;;41.30;16.38;;;4.20;99.90;;;;;;5062466;28;20024;-74
2024/02/29 06:50:43;;;;;;;39.42;15.38;;;4.20;99.90;;;;;;5062128;28;20021;-72
2024/02/29 06:53:09;;;;;;;41.90;16.63;;;4.20;99.90;;;;;;5062449;28;20032;-74
2024/02/29 06:55:35;;;;;;;34.63;13.90;;;4.30;99.90;;;;;;5062318;28;20091;-73
2024/02/29 06:58:02;;;;;;;39.83;17.98;;;4.30;99.90;;;;;;5060844;28;20017;-73
2024/02/29 07:00:28;;;;;;;30.92;12.60;;;4.30;99.90;;;;;;5061677;28;20045;-73
2024/02/29 07:02:55;;;;;;;38.97;16.77;;;4.40;99.90;;;;;;5062210;28;20017;-75
2024/02/29 07:05:21;;;;;;;44.30;16.85;;;4.40;99.90;;;;;;5061893;28;20036;-73
2024/02/29 07:07:46;;;;;;;41.67;14.63;;;4.40;99.90;;;;;;5060674;28;20029;-73
2024/02/29 07:10:12;;;;;;;40.72;17.20;;;4.50;99.90;;;;;;5060647;28;20091;-72
2024/02/29 07:12:40;;;;;;;38.33;15.98;;;4.50;99.90;;;;;;5060393;28;20029;-73
2024/02/29 07:15:06;;;;;;;37.90;17.00;;;4.60;99.90;;;;;;5062573;28;20362;-73
2024/02/29 07:17:32;;;;;;;36.80;15.10;;;4.50;99.90;;;;;;5060583;28;20112;-72
2024/02/29 07:19:58;;;;;;;37.05;15.50;;;4.60;99.90;;;;;;5061966;28;20040;-73
2024/02/29 07:22:24;;;;;;;38.67;16.45;;;4.70;99.90;;;;;;5058206;28;20021;-73
2024/02/29 07:24:49;;;;;;;41.28;16.02;;;4.70;99.90;;;;;;5060090;28;20117;-73
2024/02/29 07:27:15;;;;;;;39.70;16.92;;;4.70;99.90;;;;;;5062039;28;20029;-72
2024/02/29 07:29:40;;;;;;;36.65;16.00;;;4.80;99.90;;;;;;5062185;28;20028;-75
2024/02/29 07:32:06;;;;;;;31.08;13.38;;;4.90;99.90;;;;;;5061641;28;20033;-75
2024/02/29 07:34:34;;;;;;;37.80;15.70;;;4.90;99.90;;;;;;5060655;28;20078;-73
2024/02/29 07:36:59;;;;;;;38.85;16.05;;;5.00;99.90;;;;;;5059201;28;20089;-74
2024/02/29 07:39:25;;;;;;;38.65;15.88;;;5.00;99.90;;;;;;5055876;28;20052;-73
2024/02/29 07:41:50;;;;;;;34.92;15.40;;;5.10;99.90;;;;;;5055007;28;20105;-73
2024/02/29 07:44:16;;;;;;;41.00;15.70;;;5.10;99.90;;;;;;5059984;28;20032;-74
2024/02/29 07:46:41;;;;;;;31.83;13.48;;;5.20;99.90;;;;;;5061750;28;20116;-72
2024/02/29 07:49:07;;;;;;;36.00;16.00;;;5.20;99.90;;;;;;5063073;28;20029;-75
2024/02/29 07:51:32;;;;;;;35.70;14.70;;;5.30;99.90;;;;;;5064264;28;20071;-72
2024/02/29 07:53:58;;;;;;;32.38;14.98;;;5.40;99.90;;;;;;5062477;28;20029;-73
2024/02/29 07:56:23;;;;;;;35.17;15.80;;;5.50;99.90;;;;;;5064731;28;20080;-71
2024/02/29 07:58:49;;;;;;;40.38;15.98;;;5.60;99.90;;;;;;5064356;28;20028;-73
2024/02/29 08:01:14;;;;;;;35.88;14.68;;;5.80;99.90;;;;;;5063318;28;20041;-73
2024/02/29 08:03:40;;;;;;;33.38;13.90;;;5.90;99.90;;;;;;5064205;28;20028;-74
2024/02/29 08:06:06;;;;;;;30.10;12.38;;;6.00;99.90;;;;;;5063202;28;20028;-74
2024/02/29 08:08:32;;;;;;;32.88;15.73;;;6.10;99.90;;;;;;5064994;28;20057;-73
2024/02/29 08:10:57;;;;;;;36.90;15.10;;;6.20;99.90;;;;;;5064427;28;20050;-74
2024/02/29 08:13:23;;;;;;;34.20;15.90;;;6.30;99.90;;;;;;5064809;28;20025;-75
2024/02/29 08:15:48;;;;;;;31.60;13.10;;;6.50;99.90;;;;;;5063375;28;20048;-74
2024/02/29 08:18:14;;;;;;;28.05;13.38;;;6.50;99.90;;;;;;5063480;28;20021;-73
2024/02/29 08:20:40;;;;;;;30.20;13.80;;;6.60;99.90;;;;;;5061491;28;20109;-72
2024/02/29 08:23:06;;;;;;;33.40;15.35;;;6.80;99.90;;;;;;5058666;28;21760;-73
2024/02/29 08:25:32;;;;;;;34.92;15.18;;;6.90;99.90;;;;;;5061955;28;20029;-74
2024/02/29 08:27:57;;;;;;;28.63;12.90;;;7.10;99.90;;;;;;5062519;28;20033;-73
2024/02/29 08:30:23;;;;;;;31.88;13.00;;;7.20;99.90;;;;;;5059073;28;20172;-71
2024/02/29 08:32:49;;;;;;;27.70;12.10;;;7.40;99.90;;;;;;5061364;28;20044;-71
2024/02/29 08:35:16;;;;;;;32.13;13.13;;;7.60;99.90;;;;;;5058215;28;20032;-73
2024/02/29 08:37:43;;;;;;;29.27;12.98;;;7.80;99.90;;;;;;5061270;28;20146;-73
2024/02/29 08:40:09;;;;;;;25.42;12.40;;;8.00;99.90;;;;;;5061973;28;20029;-74
2024/02/29 08:42:35;;;;;;;23.23;10.52;;;8.20;99.90;;;;;;5056902;28;20029;-73
2024/02/29 08:45:01;;;;;;;29.30;10.75;;;8.30;99.90;;;;;;5062655;28;20743;-71
2024/02/29 08:47:26;;;;;;;27.33;11.98;;;8.40;99.90;;;;;;5064021;28;20089;-72
2024/02/29 08:49:53;;;;;;;20.52;10.90;;;8.60;99.90;;;;;;5060433;28;20036;-72
2024/02/29 08:52:18;;;;;;;22.83;8.98;;;8.80;99.90;;;;;;5064505;28;20013;-72
2024/02/29 08:54:44;;;;;;;22.75;11.13;;;8.90;99.90;;;;;;5061850;28;20092;-73
2024/02/29 08:57:12;;;;;;;21.48;10.50;;;9.00;99.90;;;;;;5064203;28;20023;-73
2024/02/29 08:59:38;;;;;;;16.27;8.35;;;9.10;99.90;;;;;;5062129;28;20930;-73
2024/02/29 09:02:05;;;;;;;19.35;9.55;;;9.10;99.90;;;;;;5060857;28;20049;-72
2024/02/29 09:04:31;;;;;;;25.75;10.68;;;9.10;99.90;;;;;;5059038;28;20032;-73
2024/02/29 09:06:57;;;;;;;14.23;7.57;;;9.10;99.90;;;;;;5057721;28;20032;-73
2024/02/29 09:09:22;;;;;;;18.02;9.20;;;9.00;99.90;;;;;;5058504;28;20048;-75
2024/02/29 09:11:48;;;;;;;20.08;9.10;;;8.90;99.90;;;;;;5055265;28;20096;-73
2024/02/29 09:14:13;;;;;;;17.50;9.20;;;8.80;99.90;;;;;;5052940;28;20064;-71
2024/02/29 09:16:39;;;;;;;20.38;9.88;;;8.80;99.90;;;;;;5057923;28;20033;-72
2024/02/29 09:19:04;;;;;;;21.85;10.02;;;8.80;99.90;;;;;;5061630;28;20036;-73
2024/02/29 09:21:30;;;;;;;15.73;7.30;;;8.70;99.90;;;;;;5059406;28;20045;-73
2024/02/29 09:23:56;;;;;;;15.18;7.32;;;8.90;99.90;;;;;;5060930;28;20028;-72
2024/02/29 09:26:22;;;;;;;17.55;7.72;;;8.90;99.90;;;;;;5062507;28;20044;-71
2024/02/29 09:28:48;;;;;;;20.42;9.07;;;8.90;99.90;;;;;;5060951;28;21048;-72
2024/02/29 09:31:14;;;;;;;15.57;6.97;;;8.90;99.90;;;;;;5061660;28;20040;-74
2024/02/29 09:33:40;;;;;;;14.43;7.05;;;9.00;99.90;;;;;;5060792;28;20028;-73
2024/02/29 09:36:14;;;;;;;17.70;8.90;;;9.00;99.90;;;;;;5061632;28;20108;-72
2024/02/29 09:38:40;;;;;;;17.08;7.93;;;9.00;99.90;;;;;;5059275;28;20049;-72
2024/02/29 09:41:07;;;;;;;18.63;9.18;;;8.90;99.90;;;;;;5063389;28;20052;-73
2024/02/29 09:43:33;;;;;;;18.80;8.13;;;8.90;99.90;;;;;;5059544;28;20566;-73
2024/02/29 09:46:00;;;;;;;17.95;8.45;;;8.90;99.90;;;;;;5060884;28;20029;-73
2024/02/29 09:48:26;;;;;;;10.85;4.93;;;8.90;99.90;;;;;;5060725;28;20113;-71
2024/02/29 09:50:52;;;;;;;15.07;7.47;;;8.90;99.90;;;;;;5061402;28;20160;-72
2024/02/29 09:53:19;;;;;;;15.18;7.13;;;8.90;99.90;;;;;;5061285;28;20040;-72
2024/02/29 09:55:45;;;;;;;17.13;7.68;;;8.90;99.90;;;;;;5059993;28;20028;-72
2024/02/29 09:58:16;;;;;;;14.13;7.60;;;9.00;99.90;;;;;;5057455;28;20052;-72
2024/02/29 10:00:45;;;;;;;17.95;7.97;;;9.00;99.90;;;;;;5060457;28;20524;-74
2024/02/29 10:03:13;;;;;;;14.43;7.25;;;9.10;99.90;;;;;;5058269;28;20432;-74
2024/02/29 10:05:39;;;;;;;14.50;7.20;;;9.10;99.90;;;;;;5050427;28;20455;-74
2024/02/29 10:08:05;;;;;;;15.80;6.85;;;9.10;99.90;;;;;;5061097;28;20075;-72
2024/02/29 10:10:30;;;;;;;15.07;7.47;;;9.20;99.90;;;;;;5062266;28;20463;-75
2024/02/29 10:12:56;;;;;;;19.90;7.10;;;9.20;99.90;;;;;;5059947;28;20021;-73
2024/02/29 10:15:26;;;;;;;13.82;6.78;;;9.30;99.90;;;;;;5062499;28;20021;-72
2024/02/29 10:17:52;;;;;;;11.85;6.63;;;9.40;99.90;;;;;;5062056;28;20057;-73
2024/02/29 10:20:20;;;;;;;15.70;6.57;;;9.40;99.90;;;;;;5060379;28;20055;-71
2024/02/29 10:22:46;;;;;;;14.55;7.28;;;9.50;99.90;;;;;;5060997;28;20063;-73
2024/02/29 10:25:13;;;;;;;11.82;5.85;;;9.60;99.90;;;;;;5060415;28;20017;-73
2024/02/29 10:27:39;;;;;;;12.18;6.25;;;9.60;99.90;;;;;;5061712;28;20040;-71
2024/02/29 10:30:14;;;;;;;16.20;7.30;;;9.70;99.90;;;;;;5061873;28;20032;-74
2024/02/29 10:32:45;;;;;;;14.85;6.80;;;9.70;99.90;;;;;;5053040;28;20040;-73
2024/02/29 10:35:24;;;;;;;14.23;7.15;;;9.80;99.90;;;;;;5060610;28;20033;-72
2024/02/29 10:37:52;;;;;;;14.52;5.63;;;9.80;99.90;;;;;;5060809;28;20108;-73
2024/02/29 10:40:18;;;;;;;17.42;6.60;;;9.80;99.90;;;;;;5060737;28;20055;-72
2024/02/29 10:42:44;;;;;;;12.02;6.75;;;10.00;99.90;;;;;;5062469;28;20021;-74
2024/02/29 10:45:15;;;;;;;15.73;6.82;;;9.90;99.90;;;;;;5060898;28;20088;-73
2024/02/29 10:47:52;;;;;;;12.75;5.93;;;10.00;99.90;;;;;;5061485;28;20039;-72
2024/02/29 10:50:25;;;;;;;13.55;6.10;;;10.00;99.90;;;;;;5061037;28;20025;-74
2024/02/29 10:53:10;;;;;;;13.45;6.32;;;10.10;99.90;;;;;;5061828;28;20033;-73
2024/02/29 10:55:49;;;;;;;13.63;6.40;;;10.10;99.90;;;;;;5061211;28;20029;-73
2024/02/29 10:58:37;;;;;;;12.73;6.05;;;10.20;99.90;;;;;;5061200;28;20029;-72
2024/02/29 11:01:04;;;;;;;12.90;6.25;;;10.40;99.90;;;;;;5060589;28;20116;-75
2024/02/29 11:03:31;;;;;;;12.82;5.90;;;10.60;99.90;;;;;;5062193;28;20039;-73
2024/02/29 11:05:57;;;;;;;12.18;5.82;;;10.80;99.90;;;;;;5060382;28;20096;-72
2024/02/29 11:08:23;;;;;;;10.55;6.10;;;10.90;99.90;;;;;;5058944;28;20033;-73
2024/02/29 11:10:48;;;;;;;12.70;5.57;;;11.10;99.90;;;;;;5046406;28;20040;-72
2024/02/29 11:13:18;;;;;;;15.23;6.20;;;11.20;99.90;;;;;;5053294;28;20035;-72
2024/02/29 11:15:44;;;;;;;12.80;6.18;;;11.30;99.90;;;;;;5059071;28;20028;-72
2024/02/29 11:18:23;;;;;;;11.70;6.25;;;11.40;99.90;;;;;;5062155;28;20032;-72
2024/02/29 11:21:01;;;;;;;11.63;5.22;;;11.60;99.90;;;;;;5061511;28;20041;-72
2024/02/29 11:23:37;;;;;;;10.75;5.53;;;11.80;99.90;;;;;;5063820;28;20044;-73
2024/02/29 11:26:13;;;;;;;10.80;6.20;;;11.90;99.90;;;;;;5063213;28;21133;-72
2024/02/29 11:28:40;;;;;;;13.70;5.75;;;12.10;99.90;;;;;;5064807;28;20032;-71
2024/02/29 11:31:17;;;;;;;9.48;5.20;;;12.30;99.90;;;;;;5066181;28;20041;-73
2024/02/29 11:33:46;;;;;;;11.52;5.30;;;12.50;99.90;;;;;;5055001;28;20093;-71
2024/02/29 11:36:12;;;;;;;10.30;5.65;;;12.70;99.90;;;;;;5055088;28;20089;-72
2024/02/29 11:38:39;;;;;;;15.73;5.75;;;12.80;99.90;;;;;;5064723;28;20036;-71
2024/02/29 11:41:21;;;;;;;11.27;6.45;;;12.90;99.90;;;;;;5063930;28;20040;-72
2024/02/29 11:43:48;;;;;;;12.43;6.50;;;13.10;99.90;;;;;;5063934;28;20481;-73
2024/02/29 11:46:15;;;;;;;11.48;6.05;;;13.10;99.90;;;;;;5065383;28;20028;-72
2024/02/29 11:48:41;;;;;;;10.65;5.97;;;13.10;99.90;;;;;;5065517;28;20031;-73
2024/02/29 11:51:07;;;;;;;12.65;7.13;;;13.40;99.90;;;;;;5065074;28;20470;-74
2024/02/29 11:53:34;;;;;;;14.55;6.78;;;13.80;99.90;;;;;;5065812;28;20017;-71
2024/02/29 11:56:01;;;;;;;10.48;6.57;;;14.00;99.90;;;;;;5065607;28;20028;-70
2024/02/29 11:58:27;;;;;;;13.20;5.82;;;13.90;99.90;;;;;;5065237;28;20014;-72
2024/02/29 12:00:56;;;;;;;14.25;5.72;;;13.90;99.90;;;;;;5065611;28;20033;-72
2024/02/29 12:03:22;;;;;;;12.57;6.97;;;13.90;99.90;;;;;;5064827;28;20035;-73
2024/02/29 12:05:48;;;;;;;13.68;8.30;;;13.90;99.90;;;;;;5064323;28;20377;-72
2024/02/29 12:08:14;;;;;;;10.95;6.50;;;13.90;99.90;;;;;;5063705;28;20033;-71
2024/02/29 12:10:39;;;;;;;11.23;6.63;;;14.00;99.90;;;;;;5064141;28;20029;-73
2024/02/29 12:13:06;;;;;;;9.50;5.68;;;14.10;99.90;;;;;;5065646;28;20025;-70
2024/02/29 12:15:37;;;;;;;11.80;5.68;;;14.10;99.90;;;;;;5065207;28;20440;-70
2024/02/29 12:18:06;;;;;;;12.43;8.02;;;14.30;99.90;;;;;;5064190;28;20035;-70
2024/02/29 12:20:32;;;;;;;12.25;5.32;;;14.30;99.90;;;;;;5065234;28;20063;-72
2024/02/29 12:22:58;;;;;;;11.13;6.38;;;14.50;99.90;;;;;;5063388;28;20029;-71
2024/02/29 12:25:25;;;;;;;9.63;6.00;;;14.80;99.90;;;;;;5063391;28;20032;-72
2024/02/29 12:27:51;;;;;;;10.85;6.22;;;15.10;99.90;;;;;;5065458;28;20135;-69
2024/02/29 12:30:18;;;;;;;11.57;5.72;;;15.40;99.90;;;;;;5063974;28;20048;-73
2024/02/29 12:32:44;;;;;;;13.07;6.63;;;15.50;99.90;;;;;;5064667;28;20016;-71